createdAt,value
2023-05-17T00:01:16.916Z,19.60
2023-05-17T00:03:44.518Z,18.30
2023-05-17T00:06:12.271Z,12.60
2023-05-17T00:08:40.210Z,25.30
2023-05-17T00:11:07.770Z,24.70
2023-05-17T00:13:35.938Z,25.30
2023-05-17T00:16:06.064Z,21.20
2023-05-17T00:18:33.895Z,19.30
2023-05-17T00:21:02.095Z,19.20
2023-05-17T00:23:29.532Z,26.00
2023-05-17T00:25:57.110Z,13.10
2023-05-17T00:28:24.702Z,15.90
2023-05-17T00:30:52.134Z,15.30
2023-05-17T00:33:19.692Z,10.20
2023-05-17T00:35:47.553Z,9.30
2023-05-17T00:38:15.114Z,18.50
2023-05-17T00:40:42.567Z,15.20
2023-05-17T00:43:10.024Z,13.90
2023-05-17T00:45:37.490Z,13.50
2023-05-17T00:48:06.203Z,10.50
2023-05-17T00:50:33.833Z,10.50
2023-05-17T00:53:01.501Z,10.80
2023-05-17T00:55:29.180Z,6.90
2023-05-17T00:57:57.062Z,8.70
2023-05-17T01:00:24.471Z,11.50
2023-05-17T01:02:52.072Z,7.30
2023-05-17T01:05:19.591Z,6.90
2023-05-17T01:07:48.477Z,14.10
2023-05-17T01:10:16.349Z,9.40
2023-05-17T01:12:56.511Z,7.10
2023-05-17T01:15:29.326Z,12.20
2023-05-17T01:18:21.022Z,9.70
2023-05-17T01:23:35.070Z,12.40
2023-05-17T01:26:11.028Z,6.50
2023-05-17T01:28:38.909Z,9.50
2023-05-17T01:31:06.453Z,13.50
2023-05-17T01:33:34.105Z,14.90
2023-05-17T01:36:01.919Z,18.80
2023-05-17T01:38:29.640Z,24.60
2023-05-17T01:40:57.235Z,20.20
2023-05-17T01:43:49.948Z,9.70
2023-05-17T01:46:58.977Z,12.40
2023-05-17T01:49:33.090Z,21.60
2023-05-17T01:52:12.738Z,23.10
2023-05-17T01:55:25.484Z,12.50
2023-05-17T01:57:54.294Z,11.70
2023-05-17T02:00:22.734Z,17.40
2023-05-17T02:02:51.837Z,18.80
2023-05-17T02:05:20.330Z,13.50
2023-05-17T02:07:48.063Z,15.50
2023-05-17T02:10:15.733Z,7.50
2023-05-17T02:12:43.406Z,12.10
2023-05-17T02:15:12.402Z,14.40
2023-05-17T02:17:41.066Z,11.20
2023-05-17T02:20:09.438Z,14.90
2023-05-17T02:22:37.344Z,14.20
2023-05-17T02:25:06.265Z,10.00
2023-05-17T02:27:33.804Z,12.90
2023-05-17T02:30:02.465Z,17.70
2023-05-17T02:32:31.231Z,15.20
2023-05-17T02:34:58.911Z,9.50
2023-05-17T02:37:26.659Z,8.60
2023-05-17T02:39:54.009Z,19.50
2023-05-17T02:42:21.780Z,16.80
2023-05-17T02:44:53.112Z,10.90
2023-05-17T02:47:23.932Z,12.70
2023-05-17T02:49:52.128Z,10.00
2023-05-17T02:52:20.073Z,10.80
2023-05-17T02:54:48.400Z,10.70
2023-05-17T02:57:16.299Z,7.40
2023-05-17T02:59:44.209Z,15.90
2023-05-17T03:02:11.949Z,9.50
2023-05-17T03:04:39.813Z,8.30
2023-05-17T03:07:08.940Z,9.30
2023-05-17T03:09:37.821Z,12.50
2023-05-17T03:12:06.655Z,17.00
2023-05-17T03:14:34.774Z,22.60
2023-05-17T03:17:02.564Z,19.10
2023-05-17T03:19:31.166Z,13.60
2023-05-17T03:21:58.899Z,19.90
2023-05-17T03:24:26.966Z,26.50
2023-05-17T03:26:54.899Z,13.90
2023-05-17T03:29:23.108Z,12.00
2023-05-17T03:31:51.693Z,9.40
2023-05-17T03:34:19.554Z,18.10
2023-05-17T03:36:47.219Z,15.00
2023-05-17T03:39:15.087Z,6.50
2023-05-17T03:41:43.273Z,6.30
2023-05-17T03:44:11.331Z,9.10
2023-05-17T03:46:39.453Z,8.70
2023-05-17T03:49:07.210Z,5.90
2023-05-17T03:51:35.747Z,7.30
2023-05-17T03:54:03.554Z,7.60
2023-05-17T03:56:31.917Z,13.00
2023-05-17T03:58:59.413Z,7.70
2023-05-17T04:01:27.726Z,10.00
2023-05-17T04:03:55.333Z,10.50
2023-05-17T04:06:23.367Z,7.40
2023-05-17T04:08:51.634Z,5.70
2023-05-17T04:11:24.217Z,11.00
2023-05-17T04:13:52.180Z,32.50
2023-05-17T04:16:20.227Z,15.00
2023-05-17T04:18:48.008Z,6.50
2023-05-17T04:21:15.995Z,10.10
2023-05-17T04:23:43.784Z,10.80
2023-05-17T04:26:11.630Z,8.30
2023-05-17T04:28:40.510Z,13.30
2023-05-17T04:31:08.841Z,5.70
2023-05-17T04:33:37.337Z,5.50
2023-05-17T04:36:06.720Z,7.50
2023-05-17T04:38:35.144Z,12.40
2023-05-17T04:41:04.844Z,6.50
2023-05-17T04:43:33.869Z,32.70
2023-05-17T04:46:01.747Z,35.90
2023-05-17T04:48:31.463Z,10.80
2023-05-17T04:51:02.914Z,10.10
2023-05-17T04:55:59.428Z,11.00
2023-05-17T04:58:27.081Z,12.20
2023-05-17T05:00:57.103Z,7.40
2023-05-17T05:03:24.930Z,7.20
2023-05-17T05:05:53.913Z,10.10
2023-05-17T05:08:21.829Z,7.60
2023-05-17T05:10:49.393Z,8.90
2023-05-17T05:13:17.764Z,8.30
2023-05-17T05:15:45.871Z,7.50
2023-05-17T05:18:13.573Z,12.00
2023-05-17T05:20:41.970Z,6.00
2023-05-17T05:23:10.557Z,16.20
2023-05-17T05:25:38.266Z,12.30
2023-05-17T05:28:08.041Z,9.00
2023-05-17T05:30:36.818Z,16.00
2023-05-17T05:33:05.319Z,6.10
2023-05-17T05:35:33.066Z,12.20
2023-05-17T05:38:00.698Z,3.70
2023-05-17T05:40:28.698Z,6.90
2023-05-17T05:42:56.668Z,5.20
2023-05-17T05:45:24.139Z,11.10
2023-05-17T05:47:54.247Z,10.10
2023-05-17T05:50:22.038Z,7.30
2023-05-17T05:52:49.903Z,8.90
2023-05-17T05:55:17.594Z,9.20
2023-05-17T05:57:46.113Z,6.20
2023-05-17T06:00:14.397Z,7.40
2023-05-17T06:02:41.997Z,5.10
2023-05-17T06:05:09.816Z,7.70
2023-05-17T06:07:37.376Z,8.70
2023-05-17T06:10:05.496Z,4.70
2023-05-17T06:12:35.680Z,4.40
2023-05-17T06:15:04.215Z,12.60
2023-05-17T06:17:31.863Z,12.40
2023-05-17T06:19:59.516Z,6.70
2023-05-17T06:22:27.105Z,17.50
2023-05-17T06:24:54.801Z,9.50
2023-05-17T06:27:22.337Z,4.40
2023-05-17T06:29:50.125Z,6.20
2023-05-17T06:32:17.675Z,8.00
2023-05-17T06:34:45.441Z,3.40
2023-05-17T06:37:13.511Z,4.90
2023-05-17T06:39:41.150Z,7.00
2023-05-17T06:42:09.179Z,11.20
2023-05-17T06:44:36.729Z,5.30
2023-05-17T06:47:04.657Z,8.00
2023-05-17T06:49:32.284Z,14.80
2023-05-17T06:52:03.778Z,3.70
2023-05-17T06:54:31.851Z,6.40
2023-05-17T06:57:03.258Z,12.80
2023-05-17T06:59:31.165Z,9.10
2023-05-17T07:02:00.897Z,9.30
2023-05-17T07:04:28.378Z,1.80
2023-05-17T07:06:57.688Z,4.90
2023-05-17T07:09:25.398Z,3.80
2023-05-17T07:11:53.760Z,8.10
2023-05-17T07:14:21.433Z,9.60
2023-05-17T07:16:49.609Z,11.50
2023-05-17T07:19:17.386Z,3.70
2023-05-17T07:21:45.700Z,7.00
2023-05-17T07:24:13.210Z,4.50
2023-05-17T07:26:40.777Z,4.20
2023-05-17T07:29:08.225Z,12.00
2023-05-17T07:31:38.504Z,8.20
2023-05-17T07:34:06.307Z,3.70
2023-05-17T07:36:34.408Z,24.20
2023-05-17T07:39:02.352Z,5.30
2023-05-17T07:41:30.015Z,17.30
2023-05-17T07:43:57.679Z,23.10
2023-05-17T07:46:26.048Z,9.30
2023-05-17T07:48:55.840Z,9.00
2023-05-17T07:51:26.445Z,12.50
2023-05-17T07:53:54.269Z,9.60
2023-05-17T07:56:22.034Z,13.60
2023-05-17T07:58:49.804Z,8.80
2023-05-17T08:01:17.482Z,8.00
2023-05-17T08:03:51.220Z,8.70
2023-05-17T08:06:19.055Z,14.60
2023-05-17T08:08:46.890Z,20.20
2023-05-17T08:11:14.862Z,15.10
2023-05-17T08:13:42.928Z,14.30
2023-05-17T08:16:14.181Z,15.70
2023-05-17T08:18:43.837Z,16.50
2023-05-17T08:21:11.813Z,10.00
2023-05-17T08:23:40.993Z,8.00
2023-05-17T08:26:08.401Z,6.20
2023-05-17T08:28:36.196Z,12.10
2023-05-17T08:31:04.734Z,11.00
2023-05-17T08:33:33.961Z,11.50
2023-05-17T08:36:05.543Z,13.30
2023-05-17T08:38:34.652Z,7.20
2023-05-17T08:41:03.513Z,8.50
2023-05-17T08:43:33.908Z,9.80
2023-05-17T08:46:04.051Z,16.80
2023-05-17T08:48:31.729Z,10.40
2023-05-17T08:51:00.437Z,8.70
2023-05-17T08:53:28.304Z,14.20
2023-05-17T08:55:59.410Z,6.40
2023-05-17T08:58:41.081Z,7.50
2023-05-17T09:01:19.920Z,9.20
2023-05-17T09:03:51.295Z,6.10
2023-05-17T09:06:21.814Z,11.20
2023-05-17T09:08:53.205Z,37.80
2023-05-17T09:11:28.821Z,6.90
2023-05-17T09:14:03.307Z,5.90
2023-05-17T09:16:35.410Z,9.60
2023-05-17T09:19:03.908Z,7.20
2023-05-17T09:21:31.848Z,6.90
2023-05-17T09:24:06.264Z,4.00
2023-05-17T09:26:40.629Z,4.80
2023-05-17T09:29:17.945Z,4.00
2023-05-17T09:31:45.696Z,6.80
2023-05-17T09:34:13.124Z,10.00
2023-05-17T09:36:42.981Z,32.60
2023-05-17T09:39:14.829Z,14.40
2023-05-17T09:41:48.263Z,9.70
2023-05-17T09:44:15.811Z,10.30
2023-05-17T09:46:45.926Z,10.20
2023-05-17T09:49:14.266Z,9.90
2023-05-17T09:51:46.171Z,6.60
2023-05-17T09:54:13.603Z,4.50
2023-05-17T09:56:40.575Z,5.30
2023-05-17T09:59:13.328Z,5.50
2023-05-17T10:01:41.707Z,12.30
2023-05-17T10:04:12.789Z,6.40
2023-05-17T10:09:19.024Z,11.20
2023-05-17T10:11:46.940Z,7.90
2023-05-17T10:14:19.446Z,611.10
2023-05-17T10:16:47.333Z,301.90
2023-05-17T10:19:15.293Z,360.80
2023-05-17T10:21:43.603Z,96.80
2023-05-17T10:24:11.389Z,59.60
2023-05-17T10:26:38.911Z,27.30
2023-05-17T10:29:06.479Z,11.90
2023-05-17T10:31:34.432Z,30.70
2023-05-17T10:34:02.470Z,16.60
2023-05-17T10:36:30.415Z,23.50
2023-05-17T10:38:59.197Z,10.10
2023-05-17T10:41:28.082Z,14.00
2023-05-17T10:43:56.113Z,8.40
2023-05-17T10:46:23.979Z,15.00
2023-05-17T10:48:52.850Z,4.10
2023-05-17T10:51:24.766Z,10.00
2023-05-17T10:54:07.995Z,25.00
2023-05-17T10:56:35.610Z,11.80
2023-05-17T10:59:16.672Z,5.50
2023-05-17T11:04:38.994Z,12.40
2023-05-17T11:07:17.580Z,14.30
2023-05-17T11:09:46.143Z,13.40
2023-05-17T11:12:14.444Z,47.90
2023-05-17T11:14:48.639Z,34.70
2023-05-17T11:17:18.184Z,31.80
2023-05-17T11:19:55.408Z,30.20
2023-05-17T11:23:02.718Z,18.40
2023-05-17T11:25:37.241Z,5.00
2023-05-17T11:28:23.234Z,25.80
2023-05-17T11:30:54.285Z,9.00
2023-05-17T11:33:33.169Z,4.80
2023-05-17T11:36:05.704Z,12.60
2023-05-17T11:38:34.822Z,8.10
2023-05-17T11:41:27.008Z,3.90
2023-05-17T11:43:55.698Z,4.40
2023-05-17T11:46:24.327Z,7.00
2023-05-17T11:48:53.364Z,8.10
2023-05-17T11:51:23.854Z,8.70
2023-05-17T11:53:55.763Z,10.50
2023-05-17T11:56:35.512Z,6.10
2023-05-17T11:59:10.723Z,6.50
2023-05-17T12:01:46.424Z,2.30
2023-05-17T12:04:14.179Z,4.30
2023-05-17T12:06:41.831Z,6.40
2023-05-17T12:09:11.527Z,4.40
2023-05-17T12:11:39.807Z,13.30
2023-05-17T12:14:07.732Z,3.40
2023-05-17T12:16:39.059Z,25.50
2023-05-17T12:19:07.946Z,6.00
2023-05-17T12:21:35.570Z,8.70
2023-05-17T12:24:03.434Z,7.50
2023-05-17T12:26:31.204Z,4.40
2023-05-17T12:29:00.187Z,4.60
2023-05-17T12:31:42.032Z,4.60
2023-05-17T12:34:09.701Z,7.30
2023-05-17T12:36:37.812Z,9.20
2023-05-17T12:39:08.957Z,7.80
2023-05-17T12:41:37.540Z,4.40
2023-05-17T12:46:41.296Z,7.80
2023-05-17T12:49:09.337Z,21.90
2023-05-17T12:51:44.928Z,13.00
2023-05-17T12:54:16.735Z,6.60
2023-05-17T12:56:45.039Z,8.30
2023-05-17T12:59:17.554Z,4.90
2023-05-17T13:01:49.553Z,9.60
2023-05-17T13:04:17.972Z,4.50
2023-05-17T13:06:52.254Z,4.60
2023-05-17T13:09:22.143Z,5.10
2023-05-17T13:11:54.128Z,5.40
2023-05-17T13:14:52.041Z,3.50
2023-05-17T13:17:27.574Z,9.20
2023-05-17T13:19:58.184Z,7.50
2023-05-17T13:22:26.320Z,6.40
2023-05-17T13:24:54.526Z,10.20
2023-05-17T13:27:22.288Z,7.30
2023-05-17T13:29:49.892Z,7.30
2023-05-17T13:32:17.509Z,3.80
2023-05-17T13:34:45.177Z,7.60
2023-05-17T13:37:13.106Z,21.20
2023-05-17T13:39:41.896Z,9.60
2023-05-17T13:42:11.219Z,27.80
2023-05-17T13:44:39.241Z,5.50
2023-05-17T13:47:07.192Z,7.20
2023-05-17T13:49:34.730Z,9.60
2023-05-17T13:52:02.497Z,4.30
2023-05-17T13:54:29.974Z,18.20
2023-05-17T13:56:58.013Z,10.40
2023-05-17T13:59:25.572Z,5.80
2023-05-17T14:01:54.007Z,14.40
2023-05-17T14:04:21.712Z,9.20
2023-05-17T14:06:50.691Z,7.00
2023-05-17T14:09:20.752Z,13.90
2023-05-17T14:11:48.697Z,10.00
2023-05-17T14:14:16.459Z,7.90
2023-05-17T14:16:44.246Z,9.70
2023-05-17T14:19:12.119Z,6.30
2023-05-17T14:21:40.055Z,9.50
2023-05-17T14:24:07.620Z,10.40
2023-05-17T14:26:35.315Z,7.90
2023-05-17T14:29:02.589Z,11.00
2023-05-17T14:31:30.527Z,6.80
2023-05-17T14:33:58.980Z,9.90
2023-05-17T14:36:26.852Z,10.20
2023-05-17T14:38:54.506Z,9.70
2023-05-17T14:41:22.829Z,10.70
2023-05-17T14:43:50.344Z,10.60
2023-05-17T14:46:18.104Z,7.40
2023-05-17T14:48:45.582Z,14.60
2023-05-17T14:51:13.743Z,9.50
2023-05-17T14:53:41.233Z,11.20
2023-05-17T14:56:10.329Z,5.80
2023-05-17T14:58:38.363Z,12.60
2023-05-17T15:01:07.089Z,14.00
2023-05-17T15:03:35.439Z,16.30
2023-05-17T15:06:06.960Z,36.40
2023-05-17T15:08:36.067Z,5.30
2023-05-17T15:11:03.727Z,5.70
2023-05-17T15:13:31.092Z,8.80
2023-05-17T15:15:59.332Z,7.10
2023-05-17T15:18:27.333Z,5.00
2023-05-17T15:20:54.991Z,11.90
2023-05-17T15:23:22.400Z,17.00
2023-05-17T15:25:50.309Z,9.30
2023-05-17T15:28:20.329Z,9.10
2023-05-17T15:30:48.196Z,7.90
2023-05-17T15:33:16.265Z,12.80
2023-05-17T15:35:45.085Z,11.50
2023-05-17T15:38:13.087Z,18.70
2023-05-17T15:40:40.397Z,6.10
2023-05-17T15:43:07.880Z,7.10
2023-05-17T15:45:35.702Z,7.70
2023-05-17T15:48:03.807Z,19.30
2023-05-17T15:50:31.751Z,17.00
2023-05-17T15:53:01.757Z,15.30
2023-05-17T15:57:58.312Z,4.40
2023-05-17T16:00:25.917Z,7.40
2023-05-17T16:02:53.765Z,6.90
2023-05-17T16:05:21.810Z,12.60
2023-05-17T16:07:49.365Z,11.80
2023-05-17T16:10:17.850Z,9.80
2023-05-17T16:12:47.660Z,8.50
2023-05-17T16:15:15.563Z,10.00
2023-05-17T16:17:43.457Z,11.30
2023-05-17T16:20:12.334Z,9.80
2023-05-17T16:22:43.831Z,12.00
2023-05-17T16:25:13.296Z,7.20
2023-05-17T16:27:41.210Z,18.30
2023-05-17T16:30:09.304Z,15.40
2023-05-17T16:32:36.993Z,20.80
2023-05-17T16:35:04.847Z,21.00
2023-05-17T16:37:32.788Z,16.80
2023-05-17T16:40:00.648Z,6.80
2023-05-17T16:42:28.097Z,10.00
2023-05-17T16:44:55.864Z,10.70
2023-05-17T16:47:26.592Z,17.80
2023-05-17T16:49:57.673Z,15.50
2023-05-17T16:52:25.458Z,10.30
2023-05-17T16:54:53.368Z,8.40
2023-05-17T16:57:21.332Z,26.90
2023-05-17T16:59:49.000Z,24.20
2023-05-17T17:02:16.658Z,31.80
2023-05-17T17:04:44.624Z,27.00
2023-05-17T17:07:12.209Z,19.90
2023-05-17T17:09:39.793Z,14.90
2023-05-17T17:12:22.990Z,15.10
2023-05-17T17:14:52.098Z,15.90
2023-05-17T17:17:19.395Z,21.20
2023-05-17T17:19:46.975Z,17.10
2023-05-17T17:22:16.609Z,19.10
2023-05-17T17:24:44.773Z,22.10
2023-05-17T17:27:12.321Z,28.00
2023-05-17T17:29:39.975Z,26.90
2023-05-17T17:32:08.786Z,19.70
2023-05-17T17:34:36.448Z,15.20
2023-05-17T17:37:04.194Z,34.80
2023-05-17T17:39:32.368Z,41.40
2023-05-17T17:42:00.446Z,13.60
2023-05-17T17:44:28.478Z,14.00
2023-05-17T17:46:56.537Z,15.40
2023-05-17T17:49:24.563Z,11.80
2023-05-17T17:51:52.636Z,27.50
2023-05-17T17:54:20.905Z,48.50
2023-05-17T17:56:48.762Z,31.70
2023-05-17T17:59:17.347Z,28.00
2023-05-17T18:01:45.200Z,11.60
2023-05-17T18:04:14.840Z,17.40
2023-05-17T18:06:44.219Z,14.60
2023-05-17T18:09:11.991Z,12.80
2023-05-17T18:11:39.751Z,16.10
2023-05-17T18:14:09.097Z,8.60
2023-05-17T18:16:36.828Z,12.10
2023-05-17T18:19:04.829Z,11.50
2023-05-17T18:21:32.956Z,43.30
2023-05-17T18:24:00.824Z,18.10
2023-05-17T18:26:28.597Z,18.60
2023-05-17T18:28:56.249Z,9.90
2023-05-17T18:31:23.701Z,15.20
2023-05-17T18:33:54.278Z,15.90
2023-05-17T18:36:23.736Z,12.80
2023-05-17T18:38:52.755Z,14.40
2023-05-17T18:41:20.266Z,12.70
2023-05-17T18:43:48.152Z,10.20
2023-05-17T18:46:15.760Z,15.40
2023-05-17T18:48:43.582Z,9.90
2023-05-17T18:51:12.625Z,14.30
2023-05-17T18:53:40.057Z,16.40
2023-05-17T18:56:07.792Z,11.50
2023-05-17T18:58:35.458Z,15.10
2023-05-17T19:01:03.294Z,16.90
2023-05-17T19:03:31.532Z,16.50
2023-05-17T19:05:59.601Z,16.20
2023-05-17T19:08:28.255Z,14.20
2023-05-17T19:10:56.045Z,19.60
2023-05-17T19:13:23.708Z,20.00
2023-05-17T19:15:53.019Z,13.50
2023-05-17T19:18:21.070Z,15.80
2023-05-17T19:20:48.607Z,22.40
2023-05-17T19:23:16.274Z,13.30
2023-05-17T19:25:43.930Z,14.20
2023-05-17T19:28:11.812Z,15.10
2023-05-17T19:30:39.779Z,16.30
2023-05-17T19:33:07.615Z,13.50
2023-05-17T19:35:39.722Z,98.70
2023-05-17T19:38:07.570Z,18.60
2023-05-17T19:40:35.657Z,14.00
2023-05-17T19:43:03.299Z,10.10
2023-05-17T19:45:31.237Z,12.00
2023-05-17T19:47:58.976Z,13.90
2023-05-17T19:50:26.874Z,12.50
2023-05-17T19:52:54.999Z,11.40
2023-05-17T19:55:23.766Z,11.10
2023-05-17T19:57:51.722Z,10.60
2023-05-17T20:00:21.126Z,10.20
2023-05-17T20:02:48.851Z,12.60
2023-05-17T20:05:17.798Z,19.50
2023-05-17T20:07:46.116Z,18.30
2023-05-17T20:10:13.648Z,12.50
2023-05-17T20:12:42.199Z,20.00
2023-05-17T20:15:10.823Z,16.90
2023-05-17T20:17:40.322Z,18.10
2023-05-17T20:20:09.481Z,30.60
2023-05-17T20:22:38.274Z,91.80
2023-05-17T20:25:06.439Z,76.00
2023-05-17T20:27:34.303Z,140.70
2023-05-17T20:30:02.180Z,163.40
2023-05-17T20:32:29.975Z,231.20
2023-05-17T20:34:59.648Z,216.10
2023-05-17T20:37:27.169Z,295.10
2023-05-17T20:39:57.705Z,347.70
2023-05-17T20:42:26.824Z,432.00
2023-05-17T20:44:55.180Z,395.50
2023-05-17T20:47:22.878Z,436.00
2023-05-17T20:49:50.732Z,396.10
2023-05-17T20:52:27.796Z,373.40
2023-05-17T20:55:08.049Z,342.80
2023-05-17T20:57:36.143Z,338.70
2023-05-17T21:00:05.717Z,342.80
2023-05-17T21:02:33.633Z,332.60
2023-05-17T21:05:01.492Z,307.70
2023-05-17T21:07:30.478Z,312.20
2023-05-17T21:09:58.355Z,224.00
2023-05-17T21:12:26.015Z,234.40
2023-05-17T21:15:07.837Z,209.90
2023-05-17T21:17:41.549Z,188.40
2023-05-17T21:20:11.514Z,194.00
2023-05-17T21:22:39.083Z,204.80
2023-05-17T21:25:07.489Z,170.00
2023-05-17T21:27:35.360Z,171.40
2023-05-17T21:30:02.808Z,149.90
2023-05-17T21:32:31.098Z,137.30
2023-05-17T21:35:00.065Z,140.20
2023-05-17T21:37:27.710Z,150.90
2023-05-17T21:39:55.579Z,179.50
2023-05-17T21:42:23.261Z,219.60
2023-05-17T21:44:51.103Z,257.40
2023-05-17T21:47:18.866Z,355.60
2023-05-17T21:49:46.427Z,415.60
2023-05-17T21:52:14.098Z,442.30
2023-05-17T21:54:41.747Z,504.20
2023-05-17T21:57:09.306Z,533.50
2023-05-17T21:59:37.100Z,513.40
2023-05-17T22:02:04.856Z,490.40
2023-05-17T22:04:32.496Z,518.50
2023-05-17T22:06:59.960Z,431.30
2023-05-17T22:09:27.922Z,434.40
2023-05-17T22:11:59.094Z,337.90
2023-05-17T22:14:33.485Z,296.10
2023-05-17T22:17:01.276Z,253.20
2023-05-17T22:19:30.708Z,233.60
2023-05-17T22:21:58.420Z,273.10
2023-05-17T22:24:25.974Z,400.40
2023-05-17T22:26:53.635Z,669.60
2023-05-17T22:29:21.292Z,743.10
2023-05-17T22:31:50.425Z,711.00
2023-05-17T22:34:19.178Z,653.80
2023-05-17T22:36:46.864Z,493.40
2023-05-17T22:39:14.602Z,268.20
2023-05-17T22:41:42.372Z,111.70
2023-05-17T22:44:10.247Z,81.60
2023-05-17T22:46:38.954Z,43.60
2023-05-17T22:49:06.508Z,39.30
2023-05-17T22:51:35.752Z,31.00
2023-05-17T22:54:03.601Z,33.10
2023-05-17T22:56:31.043Z,32.40
2023-05-17T22:58:58.868Z,55.00
2023-05-17T23:01:26.839Z,75.20
2023-05-17T23:03:54.746Z,77.70
2023-05-17T23:06:22.310Z,63.40
2023-05-17T23:08:50.132Z,91.30
2023-05-17T23:11:18.405Z,54.50
2023-05-17T23:13:46.166Z,55.40
2023-05-17T23:16:14.470Z,73.80
2023-05-17T23:18:42.055Z,64.90
2023-05-17T23:21:09.969Z,46.40
2023-05-17T23:23:38.348Z,74.10
2023-05-17T23:26:06.420Z,44.90
2023-05-17T23:28:34.009Z,40.20
2023-05-17T23:31:02.624Z,51.50
2023-05-17T23:33:31.610Z,43.40
2023-05-17T23:35:59.240Z,42.10
2023-05-17T23:38:26.702Z,52.40
2023-05-17T23:40:54.305Z,101.60
2023-05-17T23:43:21.817Z,182.50
2023-05-17T23:45:49.648Z,271.80
2023-05-17T23:48:20.939Z,233.30
2023-05-17T23:50:48.563Z,219.60
2023-05-17T23:53:18.795Z,157.50
2023-05-17T23:55:46.894Z,109.10
2023-05-17T23:58:14.955Z,56.40
